Time;durP1;ratioP1;P1;durP2;ratioP2;P2;SDS_P1;SDS_P2;PMS_P1;PMS_P2;Temp;Humidity;BMP_temperature;BMP_pressure;BME280_temperature;BME280_humidity;BME280_pressure;Samples;Min_cycle;Max_cycle;Signal;HPM_P1;HPM_P2
2024/02/13 00:00:40;;;;;;;;;38.60;33.60;;;;;6.26;72.71;101603.91;2018452;27;3596017;-84
2024/02/13 00:01:52;;;;;;;;;32.60;29.40;;;;;6.27;72.31;101604.78;2027137;27;3582510;-84
2024/02/13 00:03:09;;;;;;;;;39.40;35.20;;;;;6.24;72.44;101613.50;2024538;27;3598132;-84
2024/02/13 00:04:22;;;;;;;;;41.00;37.00;;;;;6.24;72.66;101610.88;2008042;27;2856534;-84
2024/02/13 00:05:33;;;;;;;;;52.50;42.00;;;;;6.21;71.98;101603.03;2007800;27;2861757;-84
2024/02/13 00:06:45;;;;;;;;;60.20;46.80;;;;;6.21;72.32;101610.88;2017702;28;3606473;-84
2024/02/13 00:07:59;;;;;;;;;58.33;46.67;;;;;6.20;72.29;101606.50;2027293;28;3622132;-84
2024/02/13 00:09:11;;;;;;;;;61.00;46.00;;;;;6.22;72.49;101614.34;2001310;28;2875267;-84
2024/02/13 00:10:21;;;;;;;;;60.00;45.00;;;;;6.17;72.57;101599.53;1991206;28;2875221;-85
2024/02/13 00:11:33;;;;;;;;;51.33;41.00;;;;;6.17;72.07;101607.38;2016590;28;3591917;-84
2024/02/13 00:12:45;;;;;;;;;53.80;43.80;;;;;6.16;72.40;101616.09;2025185;27;3589818;-84
2024/02/13 00:13:57;;;;;;;;;49.80;39.80;;;;;6.17;72.11;101616.97;2052772;27;3593992;-84
2024/02/13 00:15:14;;;;;;;;;45.67;39.00;;;;;6.16;72.54;101620.44;2039488;27;3580429;-84
2024/02/13 00:16:26;;;;;;;;;39.00;34.67;;;;;6.16;72.53;101620.44;2023412;27;3602437;-84
2024/02/13 00:17:40;;;;;;;;;43.20;36.20;;;;;6.14;72.09;101617.84;2015353;27;3615851;-84
2024/02/13 00:18:51;;;;;;;;;40.50;36.00;;;;;6.14;72.14;101622.19;2003927;27;2852304;-84
2024/02/13 00:20:08;;;;;;;;;42.80;35.80;;;;;6.13;72.32;101620.44;2013960;27;3599250;-84
2024/02/13 00:21:19;;;;;;;;;46.50;35.00;;;;;6.12;72.48;101618.72;2000499;28;2853850;-84
2024/02/13 00:22:31;;;;;;;;;36.00;32.00;;;;;6.10;72.54;101623.06;2000953;28;2844038;-84
2024/02/13 00:23:42;;;;;;;;;33.50;30.00;;;;;6.08;72.66;101623.03;1999941;28;2859635;-84
2024/02/13 00:24:53;;;;;;;;;39.20;34.00;;;;;6.07;71.90;101614.34;2009122;28;3596049;-84
2024/02/13 00:26:09;;;;;;;;;39.60;34.40;;;;;6.10;72.63;101623.91;2045522;28;3602346;-84
2024/02/13 00:27:19;;;;;;;;;41.50;34.00;;;;;6.07;72.77;101623.94;2001428;27;2851266;-84
2024/02/13 00:28:31;;;;;;;;;39.40;34.40;;;;;6.06;72.38;101625.63;2022205;27;3601240;-85
2024/02/13 00:29:44;;;;;;;;;41.40;35.00;;;;;6.05;72.45;101626.50;2016424;28;3612075;-84
2024/02/13 00:30:56;;;;;;;;;49.33;35.00;;;;;6.06;72.31;101635.19;2003435;27;3650277;-84
2024/02/13 00:32:08;;;;;;;;;33.20;31.80;;;;;6.03;72.02;101627.34;2040240;28;3588782;-84
2024/02/13 00:33:20;;;;;;;;;39.20;33.60;;;;;6.03;72.41;101629.97;2022245;27;3590824;-84
2024/02/13 00:34:31;;;;;;;;;37.60;32.80;;;;;6.02;72.42;101633.47;2029240;27;3583525;-84
2024/02/13 00:35:43;;;;;;;;;37.00;34.40;;;;;5.99;72.47;101629.13;2052871;27;3606834;-84
2024/02/13 00:36:58;;;;;;;;;35.00;31.20;;;;;6.00;72.44;101632.59;2011001;28;3602300;-84
2024/02/13 00:38:08;;;;;;;;;37.00;31.50;;;;;5.99;71.87;101647.38;1994177;27;2870531;-84
2024/02/13 00:39:21;;;;;;;;;42.00;35.00;;;;;5.97;72.27;101636.06;2029388;27;3606464;-84
2024/02/13 00:40:31;;;;;;;;;32.00;31.00;;;;;5.97;72.40;101641.28;2010698;27;2841885;-84
2024/02/13 00:41:43;;;;;;;;;37.20;32.60;;;;;5.97;72.58;101641.28;2029277;27;3591931;-84
2024/02/13 00:42:55;;;;;;;;;40.00;34.60;;;;;5.94;72.61;101650.00;2019987;28;3615836;-84
2024/02/13 00:44:07;;;;;;;;;38.00;32.00;;;;;5.94;72.52;101638.69;2020981;27;3591234;-84
2024/02/13 00:45:19;;;;;;;;;37.60;33.20;;;;;5.92;72.59;101646.50;2020033;28;3594976;-84
2024/02/13 00:46:31;;;;;;;;;40.40;34.80;;;;;5.93;72.44;101647.34;2020276;28;3599166;-84
2024/02/13 00:47:44;;;;;;;;;34.40;28.40;;;;;5.94;72.33;101649.13;2002739;28;3602278;-84
2024/02/13 00:48:55;;;;;;;;;34.33;31.00;;;;;5.92;72.71;101640.41;2002397;27;3599215;-84
2024/02/13 00:50:08;;;;;;;;;32.33;26.00;;;;;5.91;72.11;101646.50;2004890;28;3591949;-84
2024/02/13 00:51:19;;;;;;;;;32.00;32.00;;;;;5.92;72.06;101643.91;2017344;28;2845085;-84
2024/02/13 00:52:31;;;;;;;;;36.40;31.20;;;;;5.92;72.29;101648.25;2017523;27;3582491;-84
2024/02/13 00:53:43;;;;;;;;;32.60;29.80;;;;;5.91;72.10;101646.50;2044580;27;3606450;-84
2024/02/13 00:54:58;;;;;;;;;34.00;32.20;;;;;5.89;72.68;101648.22;2014685;27;3584578;-84
2024/02/13 00:56:08;;;;;;;;;37.00;34.00;;;;;5.88;72.54;101644.75;2033385;27;2850228;-84
2024/02/13 00:57:20;;;;;;;;;37.40;33.20;;;;;5.88;72.43;101641.28;2028629;27;3583517;-84
2024/02/13 00:58:36;;;;;;;;;36.40;31.60;;;;;5.88;73.06;101649.97;2051966;27;3613819;-84
2024/02/13 00:59:46;;;;;;;;;35.00;27.00;;;;;5.88;72.38;101642.13;2009092;27;2865243;-84
2024/02/13 01:01:00;;;;;;;;;33.60;30.00;;;;;5.87;72.72;101642.16;2020419;27;3586725;-84
2024/02/13 01:02:10;;;;;;;;;35.00;31.00;;;;;5.88;72.23;101649.13;2008788;27;2852308;-84
2024/02/13 01:03:22;;;;;;;;;31.20;27.80;;;;;5.86;72.92;101646.50;2016565;27;3596043;-84
2024/02/13 01:04:34;;;;;;;;;32.60;28.80;;;;;5.85;72.33;101642.16;2027622;27;3596057;-84
2024/02/13 01:05:47;;;;;;;;;28.00;26.67;;;;;5.84;72.96;101649.09;2018544;27;3596183;-84
2024/02/13 01:06:58;;;;;;;;;32.50;28.50;;;;;5.84;72.98;101649.09;2007346;27;2855487;-84
2024/02/13 01:08:12;;;;;;;;;30.80;29.40;;;;;5.86;72.52;101654.31;2025811;27;3597070;-84
2024/02/13 01:09:23;;;;;;;;;30.50;27.00;;;;;5.84;72.96;101654.31;2032920;27;2848142;-85
2024/02/13 01:10:35;;;;;;;;;32.00;27.20;;;;;5.85;72.81;101656.03;2018544;27;3586722;-84
2024/02/13 01:11:47;;;;;;;;;36.60;31.20;;;;;5.84;72.58;101650.84;2019912;28;3596061;-84
2024/02/13 01:12:59;;;;;;;;;38.67;32.00;;;;;5.84;72.94;101656.94;2015526;28;3593977;-84
2024/02/13 01:14:11;;;;;;;;;31.60;30.20;;;;;5.82;72.82;101656.06;2012655;27;3589777;-84
2024/02/13 01:15:23;;;;;;;;;36.80;30.60;;;;;5.83;72.37;101659.53;2044976;28;3608537;-84
2024/02/13 01:16:35;;;;;;;;;35.40;31.00;;;;;5.83;73.33;101651.69;2017771;28;3584607;-84
2024/02/13 01:17:47;;;;;;;;;31.00;27.00;;;;;5.83;73.12;101654.31;2008630;27;3597119;-84
2024/02/13 01:18:59;;;;;;;;;38.20;32.80;;;;;5.81;72.88;101651.69;2019505;28;3596057;-84
2024/02/13 01:20:12;;;;;;;;;32.00;31.00;;;;;5.83;72.83;101654.31;1992739;28;2843960;-84
2024/02/13 01:21:22;;;;;;;;;28.00;26.00;;;;;5.84;73.24;101656.06;1995224;28;2859126;-84
2024/02/13 01:22:35;;;;;;;;;33.20;27.20;;;;;5.82;73.18;101653.47;2008367;28;3598140;-85
2024/02/13 01:23:46;;;;;;;;;35.50;33.00;;;;;5.82;73.04;101658.69;1993031;28;2836712;-84
2024/02/13 01:24:58;;;;;;;;;28.40;28.40;;;;;5.81;72.92;101656.91;1992845;28;3574190;-84
2024/02/13 01:26:10;;;;;;;;;37.80;28.60;;;;;5.84;73.03;101662.16;2003654;27;3613736;-84
2024/02/13 01:27:21;;;;;;;;;35.40;30.60;;;;;5.83;73.10;101655.19;2011829;27;3590948;-84
2024/02/13 01:28:35;;;;;;;;;26.20;22.40;;;;;5.84;73.14;101656.06;2026179;27;3583542;-84
2024/02/13 01:29:47;;;;;;;;;35.00;28.00;;;;;5.83;72.75;101654.31;2027209;28;2862740;-84
2024/02/13 01:30:58;;;;;;;;;34.00;32.00;;;;;5.83;72.62;101655.19;2001768;28;2858605;-85
2024/02/13 01:32:09;;;;;;;;;31.20;29.60;;;;;5.83;72.87;101656.91;2011454;27;3595022;-84
2024/02/13 01:33:22;;;;;;;;;32.20;32.20;;;;;5.83;72.99;101660.41;2013767;28;3569987;-85
2024/02/13 01:34:33;;;;;;;;;40.00;33.20;;;;;5.82;72.96;101661.28;2037066;27;3592904;-85
2024/02/13 01:35:45;;;;;;;;;35.80;29.40;;;;;5.82;72.68;101663.91;2028880;27;3612727;-84
2024/02/13 01:37:00;;;;;;;;;33.40;26.60;;;;;5.81;73.28;101662.13;2028921;27;3591878;-84
2024/02/13 01:38:11;;;;;;;;;37.50;29.50;;;;;5.81;72.80;101661.25;2006971;27;2866876;-84
2024/02/13 01:39:24;;;;;;;;;39.00;32.50;;;;;5.80;73.05;101665.59;2008399;27;2849183;-84
2024/02/13 01:40:34;;;;;;;;;34.00;32.00;;;;;5.81;72.82;101666.47;1998434;28;2851336;-84
2024/02/13 01:41:46;;;;;;;;;30.33;27.33;;;;;5.80;72.64;101670.81;2017292;27;3595070;-84
2024/02/13 01:42:59;;;;;;;;;33.40;29.40;;;;;5.80;72.74;101665.59;2051826;27;3597116;-84
2024/02/13 01:44:09;;;;;;;;;37.00;30.00;;;;;5.78;72.71;101659.50;2009955;27;2863772;-84
2024/02/13 01:45:23;;;;;;;;;35.60;31.60;;;;;5.79;72.53;101666.50;2024462;27;3584563;-84
2024/02/13 01:46:33;;;;;;;;;30.00;29.50;;;;;5.77;72.78;101656.91;2003647;27;2838827;-84
2024/02/13 01:47:45;;;;;;;;;35.80;31.20;;;;;5.76;72.89;101661.25;2026206;27;3590866;-84
2024/02/13 01:48:59;;;;;;;;;36.00;32.20;;;;;5.77;72.64;101659.53;2042064;28;3581461;-85
2024/02/13 01:50:14;;;;;;;;;35.50;32.00;;;;;5.77;72.74;101668.22;2026284;28;2850245;-84
2024/02/13 01:51:28;;;;;;;;;35.33;32.33;;;;;5.74;72.55;101657.78;1999776;28;2834621;-84
2024/02/13 01:52:39;;;;;;;;;36.00;33.00;;;;;5.73;72.82;101658.63;2024770;28;2847093;-84
2024/02/13 01:53:50;;;;;;;;;35.40;31.60;;;;;5.73;72.95;101663.84;2001902;28;3583635;-85
2024/02/13 01:55:04;;;;;;;;;39.40;30.80;;;;;5.71;72.63;101666.47;2043191;27;3608584;-84
2024/02/13 01:56:15;;;;;;;;;38.33;33.00;;;;;5.71;72.04;101668.19;2005628;27;3598175;-84
2024/02/13 01:57:30;;;;;;;;;40.00;33.00;;;;;5.68;73.22;101665.59;2008954;28;3591900;-82
2024/02/13 01:58:41;;;;;;;;;38.50;34.50;;;;;5.67;72.84;101662.13;2023566;27;2848135;-84
2024/02/13 01:59:53;;;;;;;;;38.00;34.00;;;;;5.67;73.25;101669.94;2027880;27;3596413;-84
2024/02/13 02:01:05;;;;;;;;;39.40;33.00;;;;;5.66;72.71;101665.56;2020064;27;3590905;-84
2024/02/13 02:02:18;;;;;;;;;38.50;33.00;;;;;5.66;72.73;101660.34;2010255;27;2857537;-84
2024/02/13 02:03:32;;;;;;;;;35.00;33.50;;;;;5.66;73.41;101662.09;2011907;27;2844003;-84
2024/02/13 02:04:42;;;;;;;;;37.50;35.00;;;;;5.68;72.78;101668.22;2006312;27;2850217;-85
2024/02/13 02:05:54;;;;;;;;;34.40;27.80;;;;;5.66;73.11;101665.56;2024205;27;3608992;-84
2024/02/13 02:07:08;;;;;;;;;38.33;34.00;;;;;5.67;73.09;101663.84;2025133;27;3580466;-84
2024/02/13 02:08:18;;;;;;;;;37.00;34.00;;;;;5.65;72.90;101671.69;2033824;27;2854478;-84
2024/02/13 02:09:33;;;;;;;;;35.80;32.00;;;;;5.65;72.91;101656.03;2027215;27;3587688;-84
2024/02/13 02:10:44;;;;;;;;;38.50;33.00;;;;;5.63;72.80;101656.00;2031875;27;2860082;-84
2024/02/13 02:11:55;;;;;;;;;41.00;35.00;;;;;5.64;72.75;101654.28;2003327;27;2849172;-84
2024/02/13 02:13:07;;;;;;;;;36.60;33.60;;;;;5.65;73.14;101661.25;2013408;27;3600211;-84
2024/02/13 02:14:19;;;;;;;;;38.40;34.40;;;;;5.63;72.85;101655.13;2021918;27;3576267;-85
2024/02/13 02:15:30;;;;;;;;;35.50;31.50;;;;;5.63;72.84;101656.00;2008836;27;2859588;-84
2024/02/13 02:16:43;;;;;;;;;36.80;32.40;;;;;5.63;73.03;101656.00;2026103;27;3596045;-84
2024/02/13 02:17:54;;;;;;;;;42.00;33.00;;;;;5.64;73.36;101659.50;2009970;27;2844998;-84
2024/02/13 02:19:04;;;;;;;;;32.50;31.50;;;;;5.62;73.16;101658.63;2004244;28;2847093;-84
2024/02/13 02:20:18;;;;;;;;;36.80;32.00;;;;;5.64;73.03;101656.88;2023137;27;3595019;-85
2024/02/13 02:21:29;;;;;;;;;34.00;27.67;;;;;5.62;72.79;101656.88;1999915;27;3608618;-85
2024/02/13 02:22:41;;;;;;;;;34.60;32.60;;;;;5.62;73.14;101656.88;2022390;28;3593970;-84
2024/02/13 02:23:53;;;;;;;;;39.60;32.60;;;;;5.61;73.47;101660.34;2022375;28;3606445;-84
2024/02/13 02:25:07;;;;;;;;;34.60;32.60;;;;;5.61;73.13;101657.75;2022241;27;3572100;-84
2024/02/13 02:26:17;;;;;;;;;34.50;29.50;;;;;5.63;73.50;101663.84;2034942;27;2863847;-85
2024/02/13 02:27:29;;;;;;;;;32.40;31.60;;;;;5.65;73.12;101660.38;2021743;28;3598180;-84
2024/02/13 02:28:43;;;;;;;;;36.00;32.00;;;;;5.62;72.74;101659.50;2020949;28;3597444;-84
2024/02/13 02:29:53;;;;;;;;;39.00;33.00;;;;;5.62;73.14;101662.09;2002622;28;2855429;-84
2024/02/13 02:31:05;;;;;;;;;33.80;30.40;;;;;5.62;73.35;101661.22;2014157;28;3600226;-85
2024/02/13 02:32:17;;;;;;;;;38.20;32.80;;;;;5.61;72.64;101662.09;2020562;27;3592948;-84
2024/02/13 02:33:30;;;;;;;;;37.00;33.20;;;;;5.63;73.08;101665.56;2021506;28;3583580;-84
2024/02/13 02:34:40;;;;;;;;;36.00;33.00;;;;;5.60;73.32;101671.66;2027940;27;2843971;-84
2024/02/13 02:35:53;;;;;;;;;36.60;31.00;;;;;5.60;73.27;101669.06;2024968;27;3589785;-84
2024/02/13 02:37:05;;;;;;;;;36.50;31.50;;;;;5.60;73.52;101669.06;2002725;28;2861692;-84
2024/02/13 02:38:16;;;;;;;;;28.50;28.00;;;;;5.58;73.33;101668.16;2002194;28;2856479;-84
2024/02/13 02:39:28;;;;;;;;;36.00;31.60;;;;;5.60;73.62;101668.19;2022284;27;3600218;-85
2024/02/13 02:40:40;;;;;;;;;30.00;28.60;;;;;5.59;73.10;101664.69;2023450;27;3591854;-84
2024/02/13 02:41:52;;;;;;;;;35.60;31.80;;;;;5.59;72.83;101663.81;2012883;27;3600554;-85
2024/02/13 02:43:04;;;;;;;;;28.00;25.00;;;;;5.57;73.18;101663.81;2015942;27;3583561;-84
2024/02/13 02:44:16;;;;;;;;;39.00;32.80;;;;;5.56;73.13;101658.59;2034627;27;3601260;-84
2024/02/13 02:45:28;;;;;;;;;33.60;30.60;;;;;5.55;73.21;101662.06;2014413;28;3609597;-84
2024/02/13 02:46:40;;;;;;;;;30.60;30.00;;;;;5.56;73.15;101663.81;2019955;27;3598118;-84
2024/02/13 02:47:52;;;;;;;;;36.00;32.00;;;;;5.55;73.25;101662.97;2002821;27;2866900;-85
2024/02/13 02:49:05;;;;;;;;;30.40;30.40;;;;;5.56;73.33;101667.28;2015135;28;3598115;-84
2024/02/13 02:50:16;;;;;;;;;37.67;26.67;;;;;5.54;73.09;101661.19;2025381;28;2874210;-85
2024/02/13 02:51:28;;;;;;;;;35.67;32.67;;;;;5.55;72.78;101662.06;2020993;27;3584644;-84
2024/02/13 02:52:40;;;;;;;;;35.40;32.40;;;;;5.54;73.19;101665.53;2044326;28;3589822;-84
2024/02/13 02:53:52;;;;;;;;;37.60;33.40;;;;;5.53;73.13;101664.69;2009036;28;3598111;-85
2024/02/13 02:55:07;;;;;;;;;36.20;29.60;;;;;5.53;73.11;101663.81;2009593;27;3604383;-84
2024/02/13 02:56:18;;;;;;;;;41.50;33.00;;;;;5.51;73.04;101664.66;1996542;28;2850256;-84
2024/02/13 02:57:30;;;;;;;;;40.60;35.00;;;;;5.50;72.81;101662.06;2012476;28;3589794;-84
2024/02/13 02:58:42;;;;;;;;;27.00;25.00;;;;;5.53;73.12;101669.03;2014426;27;3599174;-84
2024/02/13 02:59:54;;;;;;;;;36.40;33.60;;;;;5.52;73.50;101670.75;2007429;28;3579363;-84
2024/02/13 03:01:08;;;;;;;;;38.40;32.80;;;;;5.52;73.56;101668.16;2046174;27;3582516;-84
2024/02/13 03:02:20;;;;;;;;;43.50;33.50;;;;;5.53;73.24;101666.41;2001948;28;2857548;-84
2024/02/13 03:03:31;;;;;;;;;35.00;33.00;;;;;5.55;73.46;101670.78;2002359;28;2838767;-84
2024/02/13 03:04:42;;;;;;;;;33.50;33.00;;;;;5.56;73.42;101677.72;2003791;27;2846070;-84
2024/02/13 03:05:54;;;;;;;;;37.40;32.80;;;;;5.57;73.18;101682.09;2021578;28;3594036;-84
2024/02/13 03:07:05;;;;;;;;;41.40;34.80;;;;;5.59;73.44;101680.34;2021077;28;3610681;-85
2024/02/13 03:08:18;;;;;;;;;35.00;33.20;;;;;5.58;73.71;101681.19;2021025;28;3582524;-85
2024/02/13 03:09:30;;;;;;;;;39.60;35.20;;;;;5.59;73.49;101672.53;2043431;27;3576274;-85
2024/02/13 03:10:41;;;;;;;;;57.33;44.00;;;;;5.60;73.49;101671.66;2031730;28;3602367;-85
2024/02/13 03:11:53;;;;;;;;;52.33;44.33;;;;;5.62;73.54;101671.66;2011464;28;3583541;-84
2024/02/13 03:13:05;;;;;;;;;52.00;39.33;;;;;5.63;73.45;101674.25;2032980;28;3612734;-85
2024/02/13 03:14:17;;;;;;;;;52.80;41.00;;;;;5.66;73.52;101675.13;2012793;28;3607491;-85
2024/02/13 03:15:29;;;;;;;;;54.00;40.60;;;;;5.64;73.64;101669.94;2014341;27;3621059;-85
2024/02/13 03:16:43;;;;;;;;;46.00;37.80;;;;;5.66;73.63;101669.91;2028416;27;3563727;-85
2024/02/13 03:17:54;;;;;;;;;45.50;33.00;;;;;5.65;73.71;101669.06;2027961;28;2889846;-85
2024/02/13 03:19:05;;;;;;;;;47.00;39.00;;;;;5.68;74.05;101671.66;2022577;27;3586714;-85
2024/02/13 03:20:17;;;;;;;;;49.00;38.00;;;;;5.68;73.74;101660.38;2023013;27;3585692;-85
2024/02/13 03:21:29;;;;;;;;;38.67;34.00;;;;;5.71;73.94;101660.38;2015888;28;3586072;-84
2024/02/13 03:22:42;;;;;;;;;48.00;40.40;;;;;5.70;73.88;101669.97;2043221;27;3583533;-85
2024/02/13 03:23:53;;;;;;;;;30.20;30.20;;;;;5.72;74.07;101672.56;2039082;27;3575203;-84
2024/02/13 03:25:05;;;;;;;;;46.60;38.00;;;;;5.74;74.30;101670.81;2051321;27;3593948;-85
2024/02/13 03:26:17;;;;;;;;;39.00;35.33;;;;;5.74;74.27;101663.88;2023699;27;3591247;-84
2024/02/13 03:27:29;;;;;;;;;43.00;35.80;;;;;5.77;73.98;101668.22;2044948;28;3606460;-85
2024/02/13 03:28:41;;;;;;;;;39.33;35.33;;;;;5.79;73.88;101663.00;2012604;28;3606473;-84
2024/02/13 03:29:53;;;;;;;;;44.20;35.80;;;;;5.79;74.37;101663.00;2020872;28;3591866;-85
2024/02/13 03:31:05;;;;;;;;;32.40;28.60;;;;;5.81;74.17;101669.97;2022528;28;3583529;-84
2024/02/13 03:32:17;;;;;;;;;36.40;32.60;;;;;5.83;73.92;101665.63;2045701;27;3587727;-85
2024/02/13 03:33:28;;;;;;;;;40.00;34.00;;;;;5.84;73.84;101661.28;2026491;27;2864813;-85
2024/02/13 03:34:40;;;;;;;;;26.67;22.33;;;;;5.85;74.00;101663.03;2015198;27;2827368;-84
2024/02/13 03:35:50;;;;;;;;;45.00;37.00;;;;;5.88;74.01;101662.16;2024533;28;2870052;-85
2024/02/13 03:37:03;;;;;;;;;36.80;33.80;;;;;5.88;73.80;101656.94;2019569;27;3591870;-85
2024/02/13 03:38:14;;;;;;;;;36.00;33.50;;;;;5.88;74.11;101667.38;2017820;28;2842946;-84
2024/02/13 03:39:25;;;;;;;;;32.00;28.00;;;;;5.90;74.12;101663.03;1995354;28;2842934;-85
2024/02/13 03:40:36;;;;;;;;;39.50;36.00;;;;;5.91;74.26;101657.81;1999667;27;2851347;-84
2024/02/13 03:41:48;;;;;;;;;41.60;34.60;;;;;5.93;73.72;101655.19;2021181;27;3595016;-85
2024/02/13 03:43:00;;;;;;;;;40.00;34.40;;;;;5.92;73.95;101659.56;2020408;27;3603378;-84
2024/02/13 03:44:12;;;;;;;;;35.20;32.20;;;;;5.95;74.33;101659.53;2013680;27;3594021;-84
2024/02/13 03:45:24;;;;;;;;;39.00;34.20;;;;;5.95;74.14;101649.09;2007911;28;3608547;-85
2024/02/13 03:46:37;;;;;;;;;39.60;32.80;;;;;5.97;74.41;101654.34;2018456;28;3598160;-84
2024/02/13 03:47:48;;;;;;;;;48.00;38.00;;;;;5.97;74.14;101660.41;1994048;28;2848150;-84
2024/02/13 03:49:00;;;;;;;;;39.60;34.60;;;;;5.96;73.87;101649.97;2013645;28;3603432;-84
2024/02/13 03:50:12;;;;;;;;;42.20;34.40;;;;;5.97;74.59;101649.97;2006020;28;3604361;-85
2024/02/13 03:51:24;;;;;;;;;38.20;33.60;;;;;6.01;74.53;101647.38;2010594;28;3595382;-84
2024/02/13 03:52:36;;;;;;;;;33.00;31.40;;;;;6.02;74.23;101650.00;2021448;28;3581445;-84
2024/02/13 03:53:48;;;;;;;;;39.00;34.80;;;;;6.03;74.01;101650.84;2014942;28;3600199;-85
2024/02/13 03:55:00;;;;;;;;;37.60;33.60;;;;;6.06;74.05;101651.75;2015312;27;3599191;-85
2024/02/13 03:56:12;;;;;;;;;38.60;32.80;;;;;6.07;74.38;101652.66;2022251;28;3581462;-84
2024/02/13 03:57:24;;;;;;;;;38.60;34.60;;;;;6.10;74.18;101650.00;2045757;27;3597081;-84
2024/02/13 03:58:36;;;;;;;;;42.00;35.20;;;;;6.12;74.54;101655.25;2002306;27;3610659;-85
2024/02/13 03:59:48;;;;;;;;;44.80;35.40;;;;;6.12;74.69;101660.47;2022777;27;3609638;-85
2024/02/13 04:01:00;;;;;;;;;40.00;35.20;;;;;6.14;74.51;101653.50;2016291;28;3592928;-84
2024/02/13 04:02:12;;;;;;;;;46.00;35.40;;;;;6.17;74.31;101649.16;2011983;27;3604362;-85
2024/02/13 04:03:26;;;;;;;;;42.00;36.33;;;;;6.18;74.18;101650.03;2015222;28;3596074;-84
2024/02/13 04:04:38;;;;;;;;;41.33;35.00;;;;;6.21;74.76;101643.94;1999598;27;3602357;-85
2024/02/13 04:05:50;;;;;;;;;44.00;38.00;;;;;6.24;74.29;101651.78;2028413;27;3589837;-84
2024/02/13 04:07:04;;;;;;;;;42.80;37.00;;;;;6.22;74.37;101646.56;2024808;27;3587011;-85
2024/02/13 04:08:15;;;;;;;;;47.50;37.00;;;;;6.25;74.46;101649.16;2031166;27;2851263;-84
2024/02/13 04:09:27;;;;;;;;;46.80;36.80;;;;;6.26;74.90;101650.91;2023798;27;3611657;-84
2024/02/13 04:10:40;;;;;;;;;42.00;36.60;;;;;6.27;74.76;101644.78;2024178;27;3594481;-84
2024/02/13 04:11:52;;;;;;;;;41.00;35.00;;;;;6.30;74.82;101639.59;2004929;27;3595064;-85
2024/02/13 04:13:06;;;;;;;;;44.00;37.00;;;;;6.34;74.69;101652.66;2031290;27;3600600;-84
2024/02/13 04:14:18;;;;;;;;;38.00;32.50;;;;;6.35;74.97;101651.75;2007915;27;2854474;-85
2024/02/13 04:15:29;;;;;;;;;45.67;37.00;;;;;6.36;74.92;101653.50;1996273;27;3600283;-85
2024/02/13 04:16:42;;;;;;;;;41.67;37.00;;;;;6.39;74.92;101649.16;2003356;27;3611774;-85
2024/02/13 04:17:53;;;;;;;;;43.33;35.00;;;;;6.40;74.43;101647.41;2001939;27;3619051;-85
2024/02/13 04:19:06;;;;;;;;;36.33;32.00;;;;;6.44;74.54;101658.72;2018736;27;3581493;-85
2024/02/13 04:20:17;;;;;;;;;42.50;34.50;;;;;6.44;74.44;101651.78;2024649;27;2867327;-85
2024/02/13 04:21:29;;;;;;;;;39.40;33.80;;;;;6.44;74.81;101654.38;2020276;27;3615894;-85
2024/02/13 04:22:42;;;;;;;;;43.67;36.00;;;;;6.46;74.57;101662.22;2035908;28;3613860;-85
2024/02/13 04:23:52;;;;;;;;;49.50;38.50;;;;;6.48;74.61;101661.34;2001485;28;2847143;-84
2024/02/13 04:25:05;;;;;;;;;41.00;35.00;;;;;6.49;75.12;101657.88;2031225;28;3610663;-85
2024/02/13 04:26:18;;;;;;;;;41.00;35.00;;;;;6.51;74.89;101653.50;1994323;28;2875268;-85
2024/02/13 04:27:29;;;;;;;;;40.50;34.00;;;;;6.52;74.99;101655.22;2000792;28;2854440;-85
2024/02/13 04:28:42;;;;;;;;;46.80;36.80;;;;;6.53;74.57;101656.09;2018435;28;3616889;-85
2024/02/13 04:29:56;;;;;;;;;39.00;33.67;;;;;6.56;74.73;101661.34;2026899;27;3593969;-84
2024/02/13 04:31:08;;;;;;;;;41.50;34.50;;;;;6.55;74.53;101643.91;2010750;27;2877357;-85
2024/02/13 04:32:19;;;;;;;;;42.00;35.50;;;;;6.56;74.81;101645.66;2008596;27;2838779;-84
2024/02/13 04:33:31;;;;;;;;;46.80;36.60;;;;;6.57;74.83;101647.38;2017025;28;3614806;-85
2024/02/13 04:34:43;;;;;;;;;40.60;35.00;;;;;6.58;74.74;101650.88;2021317;27;3600191;-85
2024/02/13 04:35:55;;;;;;;;;47.40;37.00;;;;;6.59;74.69;101652.63;2028405;27;3596028;-84
2024/02/13 04:37:09;;;;;;;;;37.60;34.00;;;;;6.58;74.87;101649.13;2023688;27;3604358;-84
2024/02/13 04:38:19;;;;;;;;;33.50;32.00;;;;;6.59;74.83;101644.78;2011356;27;2864827;-84
2024/02/13 04:39:31;;;;;;;;;35.80;32.40;;;;;6.59;74.68;101657.84;2029500;27;3611705;-85
2024/02/13 04:40:43;;;;;;;;;37.20;31.80;;;;;6.60;74.98;101662.19;2016596;27;3594972;-85
2024/02/13 04:41:56;;;;;;;;;38.40;32.80;;;;;6.62;74.71;101674.38;2019629;28;3598117;-85
2024/02/13 04:43:07;;;;;;;;;37.50;33.00;;;;;6.65;74.91;101670.88;2006089;27;2853334;-85
2024/02/13 04:44:20;;;;;;;;;32.40;30.20;;;;;6.64;74.42;101664.78;2012960;28;3598147;-84
2024/02/13 04:45:31;;;;;;;;;35.00;32.00;;;;;6.67;75.01;101666.53;1997064;27;3590861;-85
2024/02/13 04:46:43;;;;;;;;;38.20;33.80;;;;;6.67;74.47;101676.13;2048190;27;3596049;-84
2024/02/13 04:47:56;;;;;;;;;39.40;33.40;;;;;6.66;75.14;101662.19;2020360;27;3609558;-85
2024/02/13 04:49:07;;;;;;;;;40.00;33.00;;;;;6.69;74.61;101669.16;2010738;27;2859599;-85
2024/02/13 04:50:19;;;;;;;;;43.00;35.80;;;;;6.71;74.86;101676.13;2013549;27;3581832;-85
2024/02/13 04:51:31;;;;;;;;;40.67;33.00;;;;;6.71;74.62;101672.63;1995470;28;3599193;-84
2024/02/13 04:52:43;;;;;;;;;36.80;33.00;;;;;6.70;74.97;101674.38;2018891;28;3594972;-85
2024/02/13 04:53:55;;;;;;;;;38.60;32.20;;;;;6.71;74.70;101678.75;2010305;28;3590817;-85
2024/02/13 04:55:07;;;;;;;;;30.00;28.40;;;;;6.72;74.76;101664.78;2008180;28;3616857;-85
2024/02/13 04:56:18;;;;;;;;;37.00;33.50;;;;;6.74;74.76;101663.03;1995976;27;2848145;-84
2024/02/13 04:57:30;;;;;;;;;34.00;32.40;;;;;6.76;75.22;101670.88;2028262;27;3597086;-85
2024/02/13 04:58:43;;;;;;;;;31.40;29.00;;;;;6.78;75.03;101668.25;2022209;27;3605454;-85
2024/02/13 04:59:57;;;;;;;;;34.50;31.00;;;;;6.78;74.60;101676.09;1996471;27;2506501;-85
2024/02/13 05:01:09;;;;;;;;;39.00;33.00;;;;;6.79;74.44;101667.41;2000800;27;2865834;-85
2024/02/13 05:02:24;;;;;;;;;26.00;24.50;;;;;6.81;74.84;101678.72;2001647;28;2850734;-85
2024/02/13 05:07:19;;;;;;;;;29.50;28.50;;;;;6.82;75.12;101683.06;1992095;28;2856510;-85
2024/02/13 05:08:12;;;;;;;;;24.00;18.33;;;;;6.84;74.95;101683.94;2007422;27;3576337;-85
2024/02/13 05:09:24;;;;;;;;;28.67;24.33;;;;;6.83;74.84;101687.41;2044947;27;3590859;-84
2024/02/13 05:10:36;;;;;;;;;28.80;26.40;;;;;6.82;75.02;101683.06;2050688;27;3588726;-85
2024/02/13 05:11:48;;;;;;;;;32.00;28.33;;;;;6.84;74.59;101695.25;2013213;27;3595330;-85
2024/02/13 05:13:01;;;;;;;;;33.20;27.60;;;;;6.83;74.63;101687.41;2020879;27;3614836;-84
2024/02/13 05:14:11;;;;;;;;;28.50;25.50;;;;;6.86;74.57;101687.41;2003693;27;2852336;-85
2024/02/13 05:15:25;;;;;;;;;28.80;25.20;;;;;6.85;74.49;101678.69;2029120;27;3581812;-85
2024/02/13 05:16:38;;;;;;;;;27.00;24.50;;;;;6.87;74.42;101691.75;2034152;27;2831464;-84
2024/02/13 05:17:48;;;;;;;;;28.00;24.50;;;;;6.86;74.88;101682.19;2011411;27;2838844;-84
2024/02/13 05:19:01;;;;;;;;;29.20;24.40;;;;;6.88;74.72;101683.06;2021900;27;3593966;-84
2024/02/13 05:20:11;;;;;;;;;28.00;24.00;;;;;6.88;74.59;101680.44;2010103;27;2844011;-84
2024/02/13 05:21:24;;;;;;;;;25.33;23.67;;;;;6.90;74.60;101673.47;2024041;27;3575216;-84
2024/02/13 05:22:35;;;;;;;;;24.00;22.67;;;;;6.88;74.48;101672.59;2031266;27;3573144;-84
2024/02/13 05:23:47;;;;;;;;;25.00;20.00;;;;;6.89;74.45;101673.47;2052575;27;3575188;-84
2024/02/13 05:25:01;;;;;;;;;26.67;25.00;;;;;6.91;74.96;101677.84;2036983;27;3595050;-84
2024/02/13 05:26:13;;;;;;;;;28.67;25.33;;;;;6.92;74.94;101679.56;2022626;27;3581869;-84
2024/02/13 05:27:25;;;;;;;;;29.00;26.00;;;;;6.93;74.52;101681.31;2025075;27;2856566;-84